createdAt,value
2022-09-04T00:01:54.878Z,70.08
2022-09-04T00:04:35.025Z,70.41
2022-09-04T00:07:19.667Z,70.23
2022-09-04T00:10:03.729Z,71.24
2022-09-04T00:12:41.945Z,71.10
2022-09-04T00:15:19.479Z,71.21
2022-09-04T00:17:57.915Z,71.05
2022-09-04T00:20:37.548Z,71.23
2022-09-04T00:23:15.132Z,71.62
2022-09-04T00:25:54.896Z,71.55
2022-09-04T00:28:35.378Z,71.64
2022-09-04T00:31:14.960Z,71.50
2022-09-04T00:33:52.898Z,71.26
2022-09-04T00:36:25.490Z,71.38
2022-09-04T00:39:01.115Z,71.48
2022-09-04T00:41:35.744Z,71.71
2022-09-04T00:44:24.246Z,70.77
2022-09-04T00:47:39.158Z,67.95
2022-09-04T00:50:36.468Z,70.76
2022-09-04T00:53:37.529Z,69.66
2022-09-04T00:56:32.304Z,69.56
2022-09-04T00:59:12.415Z,70.55
2022-09-04T01:01:42.093Z,71.11
2022-09-04T01:04:32.214Z,69.63
2022-09-04T01:07:24.044Z,69.30
2022-09-04T01:10:20.757Z,69.52
2022-09-04T01:12:57.865Z,69.93
2022-09-04T01:15:37.357Z,69.71
2022-09-04T01:18:17.452Z,69.72
2022-09-04T01:21:12.059Z,69.45
2022-09-04T01:23:59.930Z,68.90
2022-09-04T01:26:39.159Z,70.98
2022-09-04T01:29:24.717Z,70.90
2022-09-04T01:32:03.099Z,71.06
2022-09-04T01:34:42.363Z,70.86
2022-09-04T01:37:28.603Z,70.28
2022-09-04T01:40:04.206Z,70.14
2022-09-04T01:42:45.747Z,70.09
2022-09-04T01:45:20.228Z,70.27
2022-09-04T01:47:52.693Z,70.02
2022-09-04T01:50:27.502Z,70.78
2022-09-04T01:53:03.958Z,70.89
2022-09-04T01:55:38.891Z,69.76
2022-09-04T01:58:24.063Z,69.05
2022-09-04T02:01:00.517Z,69.75
2022-09-04T02:03:40.389Z,70.44
2022-09-04T02:06:22.293Z,70.46
2022-09-04T02:09:15.557Z,69.48
2022-09-04T02:11:57.051Z,69.51
2022-09-04T02:14:40.380Z,68.51
2022-09-04T02:17:18.451Z,68.13
2022-09-04T02:20:03.546Z,68.04
2022-09-04T02:22:45.101Z,68.15
2022-09-04T02:25:24.070Z,67.66
2022-09-04T02:28:08.311Z,67.72
2022-09-04T02:30:46.107Z,69.21
2022-09-04T02:33:35.516Z,69.98
2022-09-04T02:36:12.031Z,68.44
2022-09-04T02:38:51.247Z,67.94
2022-09-04T02:41:28.110Z,69.88
2022-09-04T02:44:14.452Z,68.44
2022-09-04T02:46:57.396Z,69.30
2022-09-04T02:49:35.924Z,69.47
2022-09-04T02:52:16.267Z,69.15
2022-09-04T02:55:01.869Z,68.99
2022-09-04T02:57:47.870Z,69.14
2022-09-04T03:00:21.578Z,69.29
2022-09-04T03:03:02.290Z,67.65
2022-09-04T03:05:35.154Z,67.75
2022-09-04T03:08:10.102Z,67.30
2022-09-04T03:15:48.014Z,67.24
2022-09-04T03:18:25.191Z,67.47
2022-09-04T03:20:59.443Z,66.90
2022-09-04T03:23:40.489Z,67.09
2022-09-04T03:26:28.047Z,67.65
2022-09-04T03:29:10.363Z,67.25
2022-09-04T03:31:47.877Z,67.31
2022-09-04T03:34:38.487Z,66.98
2022-09-04T03:37:32.291Z,66.56
2022-09-04T03:40:20.000Z,66.77
2022-09-04T03:43:10.807Z,66.55
2022-09-04T03:45:50.527Z,66.73
2022-09-04T03:48:35.472Z,68.07
2022-09-04T03:51:16.257Z,68.23
2022-09-04T03:53:50.971Z,67.27
2022-09-04T03:56:43.308Z,66.05
2022-09-04T03:59:24.443Z,67.71
2022-09-04T04:01:59.946Z,67.22
2022-09-04T04:05:10.167Z,66.89
2022-09-04T04:07:52.648Z,67.67
2022-09-04T04:10:33.838Z,67.62
2022-09-04T04:13:18.169Z,67.85
2022-09-04T04:15:59.187Z,66.55
2022-09-04T04:18:49.674Z,68.43
2022-09-04T04:21:32.121Z,68.37
2022-09-04T04:24:29.048Z,67.29
2022-09-04T04:27:13.797Z,67.38
2022-09-04T04:30:06.365Z,66.51
2022-09-04T04:33:01.210Z,67.18
2022-09-04T04:35:37.770Z,67.93
2022-09-04T04:38:19.630Z,67.05
2022-09-04T04:41:06.580Z,68.64
2022-09-04T04:43:52.103Z,68.06
2022-09-04T04:46:37.088Z,68.53
2022-09-04T04:49:26.271Z,68.50
2022-09-04T04:52:21.677Z,68.96
2022-09-04T04:55:05.593Z,69.74
2022-09-04T04:57:46.341Z,68.95
2022-09-04T05:00:22.844Z,69.21
2022-09-04T05:03:09.338Z,69.35
2022-09-04T05:05:56.317Z,68.79
2022-09-04T05:08:37.122Z,68.81
2022-09-04T05:11:18.532Z,68.80
2022-09-04T05:13:58.631Z,68.89
2022-09-04T05:16:37.209Z,70.59
2022-09-04T05:19:16.563Z,73.17
2022-09-04T05:21:55.140Z,73.08
2022-09-04T05:24:33.598Z,73.36
2022-09-04T05:27:10.032Z,74.13
2022-09-04T05:29:51.894Z,72.76
2022-09-04T05:32:30.082Z,72.87
2022-09-04T05:35:10.987Z,73.84
2022-09-04T05:37:52.105Z,73.84
2022-09-04T05:40:30.183Z,72.50
2022-09-04T05:43:14.978Z,72.43
2022-09-04T05:45:54.010Z,72.36
2022-09-04T05:48:29.016Z,71.92
2022-09-04T05:51:08.369Z,72.84
2022-09-04T05:54:07.572Z,72.83
2022-09-04T05:57:09.612Z,73.09
2022-09-04T06:00:06.285Z,72.08
2022-09-04T06:03:24.668Z,72.02
2022-09-04T06:06:08.404Z,71.19
2022-09-04T06:08:58.622Z,70.54
2022-09-04T06:11:49.872Z,68.33
2022-09-04T06:14:40.283Z,66.95
2022-09-04T06:17:25.403Z,65.08
2022-09-04T06:20:08.934Z,63.44
2022-09-04T06:22:57.667Z,63.63
2022-09-04T06:25:55.169Z,60.96
2022-09-04T06:28:49.718Z,62.22
2022-09-04T06:31:53.584Z,58.38
2022-09-04T06:34:35.666Z,57.92
2022-09-04T06:37:20.533Z,58.37
2022-09-04T06:40:05.661Z,60.37
2022-09-04T06:42:48.927Z,56.79
2022-09-04T06:45:31.237Z,56.02
2022-09-04T06:48:09.780Z,54.60
2022-09-04T06:50:50.414Z,55.42
2022-09-04T06:53:32.254Z,55.01
2022-09-04T06:56:14.523Z,53.73
2022-09-04T06:59:07.931Z,54.43
2022-09-04T07:01:47.360Z,52.57
2022-09-04T07:04:29.423Z,52.14
2022-09-04T07:07:08.806Z,50.84
2022-09-04T07:09:45.439Z,50.50
2022-09-04T07:12:44.262Z,49.78
2022-09-04T07:15:39.582Z,48.02
2022-09-04T07:18:24.532Z,46.98
2022-09-04T07:21:04.751Z,47.10
2022-09-04T07:23:45.445Z,45.62
2022-09-04T07:26:28.582Z,46.57
2022-09-04T07:29:27.985Z,44.96
2022-09-04T07:32:04.853Z,44.44
2022-09-04T07:34:45.259Z,44.72
2022-09-04T07:37:27.952Z,45.25
2022-09-04T07:40:09.609Z,43.17
2022-09-04T07:42:48.781Z,41.78
2022-09-04T07:45:30.118Z,42.69
2022-09-04T07:48:16.747Z,41.20
2022-09-04T07:51:04.968Z,42.69
2022-09-04T07:54:04.257Z,41.17
2022-09-04T07:56:54.619Z,40.94
2022-09-04T07:59:43.820Z,39.87
2022-09-04T08:02:31.131Z,39.48
2022-09-04T08:05:23.995Z,41.56
2022-09-04T08:08:27.904Z,40.43
2022-09-04T08:11:25.564Z,40.49
2022-09-04T08:14:24.812Z,40.47
2022-09-04T08:17:25.431Z,40.13
2022-09-04T08:20:04.455Z,38.61
2022-09-04T08:22:48.103Z,38.11
2022-09-04T08:25:28.975Z,38.23
2022-09-04T08:28:17.542Z,36.72
2022-09-04T08:30:56.107Z,37.98
2022-09-04T08:33:56.447Z,37.30
2022-09-04T08:36:38.191Z,36.50
2022-09-04T08:39:11.847Z,35.32
2022-09-04T08:42:13.361Z,35.42
2022-09-04T08:45:27.413Z,35.73
2022-09-04T08:48:25.728Z,35.48
2022-09-04T08:51:34.241Z,35.34
2022-09-04T08:54:36.188Z,35.21
2022-09-04T08:57:50.581Z,34.75
2022-09-04T09:00:21.673Z,34.96
2022-09-04T09:03:36.103Z,33.91
2022-09-04T09:06:41.945Z,34.26
2022-09-04T09:09:48.485Z,33.99
2022-09-04T09:12:53.947Z,34.20
2022-09-04T09:15:52.967Z,35.60
2022-09-04T09:18:42.530Z,34.23
2022-09-04T09:21:22.232Z,33.16
2022-09-04T09:24:25.504Z,33.12
2022-09-04T09:27:08.529Z,32.68
2022-09-04T09:30:10.412Z,31.88
2022-09-04T09:33:20.578Z,31.74
2022-09-04T09:36:23.069Z,32.23
2022-09-04T09:39:24.978Z,30.78
2022-09-04T09:42:30.279Z,31.32
2022-09-04T09:45:41.405Z,30.41
2022-09-04T09:48:39.268Z,29.76
2022-09-04T09:51:50.992Z,29.22
2022-09-04T09:55:09.266Z,28.82
2022-09-04T09:58:22.167Z,29.60
2022-09-04T10:01:08.738Z,29.43
2022-09-04T10:04:15.447Z,29.36
2022-09-04T10:07:11.540Z,27.41
2022-09-04T10:10:24.928Z,27.82
2022-09-04T10:13:29.083Z,28.91
2022-09-04T10:16:43.752Z,28.34
2022-09-04T10:19:33.977Z,28.02
2022-09-04T10:22:34.788Z,27.59
2022-09-04T10:25:43.562Z,24.52
2022-09-04T10:28:31.097Z,28.63
2022-09-04T10:31:44.832Z,24.13
2022-09-04T10:35:09.588Z,21.91
2022-09-04T10:37:57.781Z,20.32
2022-09-04T10:40:39.616Z,20.19
2022-09-04T10:43:30.426Z,20.66
2022-09-04T10:46:08.579Z,19.39
2022-09-04T10:48:55.316Z,21.37
2022-09-04T10:51:54.516Z,19.71
2022-09-04T10:54:54.316Z,20.70
2022-09-04T10:57:40.739Z,19.29
2022-09-04T11:00:13.968Z,21.74
2022-09-04T11:03:25.750Z,20.96
2022-09-04T11:06:31.246Z,19.75
2022-09-04T11:09:35.165Z,18.21
2022-09-04T11:12:41.001Z,20.40
2022-09-04T11:15:54.772Z,21.25
2022-09-04T11:19:00.157Z,19.16
2022-09-04T11:22:00.629Z,19.07
2022-09-04T11:25:21.982Z,19.88
2022-09-04T11:28:40.291Z,18.45
2022-09-04T11:31:39.946Z,19.70
2022-09-04T11:34:45.980Z,19.78
2022-09-04T11:38:08.853Z,17.70
2022-09-04T11:41:16.756Z,17.26
2022-09-04T11:44:49.688Z,18.25
2022-09-04T11:48:03.771Z,17.89
2022-09-04T11:50:45.715Z,17.30
2022-09-04T11:53:36.062Z,18.32
2022-09-04T11:56:31.086Z,17.47
2022-09-04T11:59:24.634Z,17.77
2022-09-04T12:02:20.407Z,16.82
2022-09-04T12:05:09.951Z,16.48
2022-09-04T12:08:05.179Z,17.25
2022-09-04T12:10:55.891Z,14.38
2022-09-04T12:13:58.164Z,14.75
2022-09-04T12:17:03.148Z,14.35
2022-09-04T12:20:12.751Z,15.41
2022-09-04T12:23:18.457Z,15.36
2022-09-04T12:26:19.249Z,17.29
2022-09-04T12:29:23.028Z,16.96
2022-09-04T12:32:25.389Z,15.42
2022-09-04T12:35:18.275Z,15.42
2022-09-04T12:38:11.648Z,15.67
2022-09-04T12:40:53.504Z,15.39
2022-09-04T12:43:41.739Z,15.18
2022-09-04T12:46:26.283Z,15.26
2022-09-04T12:49:11.455Z,15.26
2022-09-04T12:51:50.029Z,15.12
2022-09-04T12:54:34.676Z,14.30
2022-09-04T12:57:24.550Z,15.25
2022-09-04T13:00:03.163Z,14.46
2022-09-04T13:02:49.583Z,15.55
2022-09-04T13:05:41.750Z,14.14
2022-09-04T13:08:26.585Z,15.56
2022-09-04T13:11:10.157Z,14.57
2022-09-04T13:13:48.959Z,15.59
2022-09-04T13:16:23.504Z,15.21
2022-09-04T13:19:03.428Z,16.19
2022-09-04T13:21:51.382Z,15.95
2022-09-04T13:24:36.413Z,15.32
2022-09-04T13:27:26.593Z,15.84
2022-09-04T13:30:07.713Z,16.38
2022-09-04T13:33:18.669Z,18.02
2022-09-04T13:36:03.276Z,18.07
2022-09-04T13:39:03.444Z,15.85
2022-09-04T13:41:58.539Z,18.19
2022-09-04T13:44:57.951Z,18.54
2022-09-04T13:47:32.245Z,19.59
2022-09-04T13:50:12.684Z,19.36
2022-09-04T13:52:48.536Z,16.41
2022-09-04T13:55:23.095Z,15.64
2022-09-04T13:57:57.742Z,15.95
2022-09-04T14:00:31.477Z,17.20
2022-09-04T14:03:04.977Z,16.93
2022-09-04T14:05:37.640Z,17.07
2022-09-04T14:08:10.463Z,17.52
2022-09-04T14:11:26.323Z,17.54
2022-09-04T14:14:21.247Z,17.78
2022-09-04T14:16:55.508Z,17.56
2022-09-04T14:19:38.269Z,19.03
2022-09-04T14:22:26.553Z,20.06
2022-09-04T14:28:04.385Z,20.00
2022-09-04T14:30:29.403Z,19.58
2022-09-04T14:30:42.240Z,20.58
2022-09-04T14:33:26.338Z,19.27
2022-09-04T14:36:16.160Z,19.21
2022-09-04T14:39:09.273Z,19.27
2022-09-04T14:41:55.588Z,20.31
2022-09-04T14:44:39.313Z,20.56
2022-09-04T14:47:21.166Z,20.76
2022-09-04T14:49:56.089Z,22.31
2022-09-04T14:52:32.545Z,21.98
2022-09-04T14:55:04.456Z,22.38
2022-09-04T14:57:39.902Z,23.39
2022-09-04T15:00:17.979Z,22.13
2022-09-04T15:02:56.019Z,22.74
2022-09-04T15:05:31.445Z,22.11
2022-09-04T15:08:04.864Z,21.66
2022-09-04T15:10:50.478Z,22.29
2022-09-04T15:13:40.725Z,22.53
2022-09-04T15:16:22.296Z,24.15
2022-09-04T15:19:03.684Z,24.82
2022-09-04T15:21:43.818Z,24.97
2022-09-04T15:24:27.601Z,24.83
2022-09-04T15:27:01.584Z,25.88
2022-09-04T15:29:38.338Z,25.80
2022-09-04T15:32:14.089Z,25.00
2022-09-04T15:34:44.367Z,26.12
2022-09-04T15:37:22.505Z,27.75
2022-09-04T15:40:01.628Z,27.39
2022-09-04T15:42:45.434Z,27.38
2022-09-04T15:45:25.286Z,27.88
2022-09-04T15:48:11.421Z,29.32
2022-09-04T15:50:57.606Z,29.42
2022-09-04T15:53:33.432Z,31.13
2022-09-04T15:56:10.640Z,31.27
2022-09-04T15:58:53.346Z,32.82
2022-09-04T16:01:26.049Z,33.69
2022-09-04T16:04:07.439Z,33.38
2022-09-04T16:06:47.976Z,35.26
2022-09-04T16:09:26.043Z,35.37
2022-09-04T16:12:10.758Z,37.68
2022-09-04T16:14:45.104Z,39.21
2022-09-04T16:17:20.496Z,39.88
2022-09-04T16:20:00.585Z,40.38
2022-09-04T16:22:38.799Z,40.61
2022-09-04T16:25:13.602Z,42.17
2022-09-04T16:27:50.424Z,42.75
2022-09-04T16:30:35.190Z,43.85
2022-09-04T16:33:20.552Z,44.51
2022-09-04T16:36:03.339Z,44.24
2022-09-04T16:38:40.620Z,44.76
2022-09-04T16:41:17.986Z,45.43
2022-09-04T16:44:22.104Z,45.06
2022-09-04T16:47:05.117Z,46.96
2022-09-04T16:49:49.553Z,46.99
2022-09-04T16:52:32.127Z,47.89
2022-09-04T16:55:10.082Z,47.35
2022-09-04T16:57:51.443Z,48.11
2022-09-04T17:00:22.396Z,48.40
2022-09-04T17:02:57.302Z,49.08
2022-09-04T17:05:35.143Z,48.79
2022-09-04T17:08:12.383Z,49.66
2022-09-04T17:10:47.357Z,49.68
2022-09-04T17:13:27.966Z,49.84
2022-09-04T17:16:02.828Z,50.54
2022-09-04T17:18:32.830Z,50.64
2022-09-04T17:26:16.746Z,51.48
2022-09-04T17:28:58.403Z,50.59
2022-09-04T17:29:11.492Z,51.67
2022-09-04T17:30:25.642Z,52.29
2022-09-04T17:37:09.916Z,51.64
2022-09-04T17:40:39.787Z,51.29
2022-09-04T17:40:46.601Z,52.25
2022-09-04T17:42:08.381Z,53.13
2022-09-04T17:44:47.423Z,53.42
2022-09-04T17:47:28.646Z,53.78
2022-09-04T17:49:59.745Z,54.15
2022-09-04T17:52:32.711Z,54.76
2022-09-04T17:55:07.325Z,54.88
2022-09-04T17:57:53.520Z,54.72
2022-09-04T18:00:26.238Z,55.16
2022-09-04T18:03:05.035Z,54.51
2022-09-04T18:05:40.017Z,54.83
2022-09-04T18:08:30.003Z,56.29
2022-09-04T18:11:07.431Z,56.76
2022-09-04T18:13:44.073Z,56.17
2022-09-04T18:16:24.157Z,57.38
2022-09-04T18:18:56.902Z,57.65
2022-09-04T18:21:31.758Z,57.17
2022-09-04T18:24:06.741Z,56.79
2022-09-04T18:26:43.228Z,57.67
2022-09-04T18:31:11.253Z,59.61
2022-09-04T18:37:18.001Z,59.04
2022-09-04T18:37:25.659Z,60.16
2022-09-04T18:38:36.397Z,60.73
2022-09-04T18:44:58.479Z,61.69
2022-09-04T18:50:29.199Z,62.70
2022-09-04T18:50:29.725Z,62.23
2022-09-04T18:50:49.356Z,62.63
2022-09-04T18:53:04.603Z,62.13
2022-09-04T18:55:42.036Z,62.64
2022-09-04T18:58:46.469Z,62.84
2022-09-04T19:01:26.814Z,63.59
2022-09-04T19:03:59.637Z,63.59
2022-09-04T19:06:35.130Z,63.42
2022-09-04T19:09:14.900Z,63.25
2022-09-04T19:11:51.568Z,63.34
2022-09-04T19:14:25.424Z,63.34
2022-09-04T19:17:00.370Z,63.18
2022-09-04T19:19:37.866Z,64.66
2022-09-04T19:22:14.416Z,65.93
2022-09-04T19:24:51.841Z,66.09
2022-09-04T19:27:29.020Z,66.92
2022-09-04T19:30:18.264Z,65.34
2022-09-04T19:33:06.229Z,65.64
2022-09-04T19:35:39.617Z,66.08
2022-09-04T19:45:56.555Z,66.65
2022-09-04T19:46:08.759Z,65.86
2022-09-04T19:46:15.050Z,66.18
2022-09-04T19:47:08.717Z,65.45
2022-09-04T19:53:18.761Z,66.03
2022-09-04T19:53:31.031Z,66.15
2022-09-04T19:55:54.092Z,67.07
2022-09-04T19:58:35.201Z,66.93
2022-09-04T20:01:14.338Z,66.19
2022-09-04T20:03:49.986Z,66.51
2022-09-04T20:06:27.375Z,66.95
2022-09-04T20:09:03.607Z,66.68
2022-09-04T20:11:39.716Z,68.02
2022-09-04T20:14:21.759Z,67.19
2022-09-04T20:17:09.451Z,67.03
2022-09-04T20:19:43.456Z,66.81
2022-09-04T20:22:28.508Z,65.78
2022-09-04T20:25:13.723Z,66.67
2022-09-04T20:27:47.188Z,66.44
2022-09-04T20:30:22.496Z,68.04
2022-09-04T20:32:57.741Z,68.10
2022-09-04T20:35:35.257Z,68.50
2022-09-04T20:38:22.761Z,67.97
2022-09-04T20:40:58.142Z,68.55
2022-09-04T20:43:37.210Z,69.07
2022-09-04T20:48:59.539Z,68.91
2022-09-04T20:52:57.019Z,69.28
2022-09-04T20:52:59.022Z,69.33
2022-09-04T20:55:19.302Z,69.24
2022-09-04T21:03:05.189Z,69.27
2022-09-04T21:03:19.848Z,68.82
2022-09-04T21:04:13.272Z,70.08
2022-09-04T21:06:48.473Z,69.56
2022-09-04T21:09:34.156Z,70.38
2022-09-04T21:12:21.895Z,70.08
2022-09-04T21:14:57.402Z,71.25
2022-09-04T21:17:35.929Z,70.97
2022-09-04T21:20:21.889Z,71.21
2022-09-04T21:23:07.627Z,69.63
2022-09-04T21:25:46.682Z,71.17
2022-09-04T21:29:11.207Z,71.18
2022-09-04T21:32:14.976Z,71.77
2022-09-04T21:35:02.989Z,72.13
2022-09-04T21:37:45.825Z,71.21
2022-09-04T21:40:51.187Z,71.42
2022-09-04T21:43:54.324Z,72.67
2022-09-04T21:46:47.716Z,71.95
2022-09-04T21:49:55.557Z,71.39
2022-09-04T21:52:56.292Z,70.57
2022-09-04T22:01:26.712Z,70.94
2022-09-04T22:02:43.810Z,71.36
2022-09-04T22:02:44.245Z,70.16
2022-09-04T22:05:08.693Z,70.32
2022-09-04T22:11:08.824Z,70.70
2022-09-04T22:13:38.287Z,72.46
2022-09-04T22:13:51.082Z,71.98
2022-09-04T22:16:37.767Z,71.64
2022-09-04T22:19:47.414Z,72.48
2022-09-04T22:22:38.896Z,72.01
2022-09-04T22:25:33.219Z,71.25
2022-09-04T22:28:41.224Z,71.65
2022-09-04T22:31:53.665Z,71.45
2022-09-04T22:35:17.069Z,70.87
2022-09-04T22:39:11.216Z,72.60
2022-09-04T22:42:01.438Z,71.94
2022-09-04T22:44:43.504Z,72.01
2022-09-04T22:47:44.159Z,72.54
2022-09-04T22:50:49.012Z,71.90
2022-09-04T22:53:46.855Z,73.28
2022-09-04T22:56:24.137Z,71.92
2022-09-04T22:59:27.720Z,71.28
2022-09-04T23:02:19.433Z,71.42
2022-09-04T23:05:05.281Z,72.15
2022-09-04T23:13:42.158Z,72.19
2022-09-04T23:14:02.833Z,72.21
2022-09-04T23:14:32.814Z,73.88
2022-09-04T23:17:37.306Z,73.25
2022-09-04T23:26:34.728Z,73.05
2022-09-04T23:26:57.907Z,73.31
2022-09-04T23:27:29.373Z,73.41
2022-09-04T23:30:25.197Z,73.90
2022-09-04T23:33:40.401Z,73.25
2022-09-04T23:36:50.039Z,73.27
2022-09-04T23:39:58.064Z,73.27
2022-09-04T23:43:30.594Z,73.67
2022-09-04T23:46:45.000Z,74.51
2022-09-04T23:49:52.992Z,74.04
2022-09-04T23:52:53.771Z,73.70
2022-09-04T23:56:01.724Z,73.55
2022-09-04T23:59:25.641Z,72.39
